createdAt,value
2017-09-24T00:01:01.727Z,11.59
2017-09-24T00:02:10.913Z,11.53
2017-09-24T00:03:19.780Z,11.56
2017-09-24T00:04:28.644Z,11.43
2017-09-24T00:05:37.188Z,11.56
2017-09-24T00:06:46.090Z,11.48
2017-09-24T00:07:54.959Z,11.56
2017-09-24T00:09:03.823Z,11.57
2017-09-24T00:10:12.360Z,11.52
2017-09-24T00:11:21.221Z,11.52
2017-09-24T00:12:30.406Z,11.49
2017-09-24T00:13:39.274Z,11.53
2017-09-24T00:14:47.814Z,11.51
2017-09-24T00:15:56.360Z,11.67
2017-09-24T00:17:04.903Z,11.61
2017-09-24T00:18:13.765Z,11.61
2017-09-24T00:19:22.310Z,11.71
2017-09-24T00:20:30.850Z,11.66
2017-09-24T00:21:40.358Z,11.61
2017-09-24T00:22:48.899Z,11.66
2017-09-24T00:23:57.766Z,11.67
2017-09-24T00:25:06.952Z,11.64
2017-09-24T00:26:16.140Z,11.64
2017-09-24T00:27:25.007Z,11.59
2017-09-24T00:28:33.871Z,11.51
2017-09-24T00:29:42.745Z,11.56
2017-09-24T00:30:51.286Z,11.46
2017-09-24T00:31:59.829Z,11.52
2017-09-24T00:33:09.015Z,11.52
2017-09-24T00:34:17.562Z,11.48
2017-09-24T00:35:26.430Z,11.45
2017-09-24T00:36:35.292Z,11.53
2017-09-24T00:37:43.838Z,11.45
2017-09-24T00:38:52.702Z,11.35
2017-09-24T00:40:01.571Z,11.38
2017-09-24T00:41:10.438Z,11.41
2017-09-24T00:42:19.623Z,11.42
2017-09-24T00:43:28.488Z,11.42
2017-09-24T00:44:37.030Z,11.42
2017-09-24T00:45:45.575Z,11.43
2017-09-24T00:46:54.762Z,11.39
2017-09-24T00:48:03.302Z,11.42
2017-09-24T00:49:11.847Z,11.39
2017-09-24T00:50:21.352Z,11.43
2017-09-24T00:51:29.897Z,11.46
2017-09-24T00:52:38.759Z,11.38
2017-09-24T00:53:47.625Z,11.38
2017-09-24T00:54:56.494Z,11.42
2017-09-24T00:56:05.360Z,11.41
2017-09-24T00:57:13.904Z,11.45
2017-09-24T00:58:22.766Z,11.41
2017-09-24T00:59:31.634Z,11.38
2017-09-24T01:00:40.177Z,11.38
2017-09-24T01:01:49.362Z,11.39
2017-09-24T01:02:58.557Z,11.31
2017-09-24T01:04:08.065Z,11.24
2017-09-24T01:05:17.249Z,11.39
2017-09-24T01:06:25.790Z,11.34
2017-09-24T01:07:35.300Z,11.31
2017-09-24T01:08:44.495Z,11.23
2017-09-24T01:09:53.242Z,11.26
2017-09-24T01:11:02.433Z,11.31
2017-09-24T01:12:11.619Z,11.23
2017-09-24T01:13:20.164Z,11.23
2017-09-24T01:14:28.708Z,11.24
2017-09-24T01:15:37.824Z,11.23
2017-09-24T01:16:47.038Z,11.21
2017-09-24T01:17:55.581Z,11.27
2017-09-24T01:19:04.774Z,11.3
2017-09-24T01:20:13.637Z,11.21
2017-09-24T01:21:22.179Z,11.27
2017-09-24T01:22:31.367Z,11.23
2017-09-24T01:23:40.232Z,11.2
2017-09-24T01:24:49.096Z,11.23
2017-09-24T01:25:57.638Z,11.28
2017-09-24T01:27:06.823Z,11.16
2017-09-24T01:28:15.687Z,11.27
2017-09-24T01:29:24.227Z,11.21
2017-09-24T01:30:32.769Z,11.13
2017-09-24T01:31:41.309Z,11.1
2017-09-24T01:32:50.173Z,11.24
2017-09-24T01:33:59.040Z,11.06
2017-09-24T01:35:07.905Z,11.09
2017-09-24T01:36:16.446Z,11.09
2017-09-24T01:37:25.310Z,11.13
2017-09-24T01:38:34.178Z,11.09
2017-09-24T01:39:43.079Z,11.2
2017-09-24T01:40:51.622Z,11.18
2017-09-24T01:42:00.165Z,11.15
2017-09-24T01:43:08.703Z,11.12
2017-09-24T01:44:17.888Z,11.09
2017-09-24T01:45:26.747Z,11.16
2017-09-24T01:46:35.286Z,11.06
2017-09-24T01:47:43.829Z,11.13
2017-09-24T01:48:52.373Z,11.09
2017-09-24T01:50:01.561Z,11.12
2017-09-24T01:51:10.425Z,11.12
2017-09-24T01:52:18.969Z,11.03
2017-09-24T01:53:28.479Z,11.08
2017-09-24T01:54:37.022Z,11
2017-09-24T01:55:45.885Z,11.05
2017-09-24T01:56:54.427Z,10.94
2017-09-24T01:58:03.295Z,10.92
2017-09-24T01:59:12.157Z,10.98
2017-09-24T02:00:20.696Z,10.98
2017-09-24T02:01:29.254Z,10.9
2017-09-24T02:02:38.126Z,11
2017-09-24T02:03:46.667Z,10.95
2017-09-24T02:04:55.207Z,11.02
2017-09-24T02:06:03.749Z,10.98
2017-09-24T02:07:12.611Z,11.02
2017-09-24T02:08:21.474Z,11
2017-09-24T02:09:30.337Z,11.02
2017-09-24T02:10:38.877Z,11
2017-09-24T02:11:48.064Z,10.98
2017-09-24T02:12:56.927Z,10.97
2017-09-24T02:14:05.792Z,10.94
2017-09-24T02:15:14.658Z,10.92
2017-09-24T02:16:23.197Z,10.97
2017-09-24T02:17:31.738Z,10.91
2017-09-24T02:18:40.600Z,10.91
2017-09-24T02:19:49.467Z,10.84
2017-09-24T02:20:58.330Z,10.85
2017-09-24T02:22:07.198Z,10.85
2017-09-24T02:23:15.740Z,10.8
2017-09-24T02:24:24.609Z,10.87
2017-09-24T02:25:33.474Z,10.87
2017-09-24T02:26:42.524Z,10.91
2017-09-24T02:27:51.063Z,10.83
2017-09-24T02:28:59.925Z,10.75
2017-09-24T02:30:08.466Z,10.79
2017-09-24T02:31:18.228Z,10.84
2017-09-24T02:32:26.769Z,10.76
2017-09-24T02:33:35.310Z,10.79
2017-09-24T02:34:43.851Z,10.73
2017-09-24T02:35:52.716Z,10.79
2017-09-24T02:37:01.584Z,10.73
2017-09-24T02:38:10.129Z,10.73
2017-09-24T02:39:18.995Z,10.75
2017-09-24T02:40:27.872Z,10.77
2017-09-24T02:41:36.743Z,10.79
2017-09-24T02:42:45.284Z,10.73
2017-09-24T02:43:53.825Z,10.75
2017-09-24T02:45:02.691Z,10.8
2017-09-24T02:46:11.235Z,10.65
2017-09-24T02:47:20.105Z,10.73
2017-09-24T02:48:28.648Z,10.75
2017-09-24T02:49:37.513Z,10.65
2017-09-24T02:50:46.740Z,10.66
2017-09-24T02:51:55.598Z,10.66
2017-09-24T02:53:04.460Z,10.65
2017-09-24T02:54:12.999Z,10.55
2017-09-24T02:55:21.544Z,10.58
2017-09-24T02:56:30.081Z,10.67
2017-09-24T02:57:38.621Z,10.57
2017-09-24T02:58:47.512Z,10.59
2017-09-24T02:59:56.375Z,10.61
2017-09-24T03:01:04.919Z,10.55
2017-09-24T03:02:13.464Z,10.57
2017-09-24T03:03:22.005Z,10.55
2017-09-24T03:04:30.546Z,10.54
2017-09-24T03:05:39.088Z,10.42
2017-09-24T03:06:47.953Z,10.51
2017-09-24T03:07:57.137Z,10.49
2017-09-24T03:09:05.678Z,10.47
2017-09-24T03:10:14.538Z,10.51
2017-09-24T03:11:23.082Z,10.44
2017-09-24T03:12:31.625Z,10.44
2017-09-24T03:13:40.163Z,10.35
2017-09-24T03:14:48.702Z,10.42
2017-09-24T03:15:57.242Z,10.41
2017-09-24T03:17:05.786Z,10.41
2017-09-24T03:18:14.648Z,10.35
2017-09-24T03:19:23.512Z,10.42
2017-09-24T03:20:32.054Z,10.42
2017-09-24T03:21:40.594Z,10.41
2017-09-24T03:22:49.458Z,10.36
2017-09-24T03:23:58.728Z,10.41
2017-09-24T03:25:07.593Z,10.41
2017-09-24T03:26:16.778Z,10.36
2017-09-24T03:27:25.322Z,10.44
2017-09-24T03:28:34.241Z,10.41
2017-09-24T03:29:42.784Z,10.44
2017-09-24T03:30:51.649Z,10.42
2017-09-24T03:32:00.195Z,10.46
2017-09-24T03:33:08.733Z,10.46
2017-09-24T03:34:17.277Z,10.41
2017-09-24T03:35:25.818Z,10.38
2017-09-24T03:36:34.358Z,10.44
2017-09-24T03:37:43.223Z,10.32
2017-09-24T03:38:52.414Z,10.39
2017-09-24T03:40:01.283Z,10.38
2017-09-24T03:41:10.149Z,10.31
2017-09-24T03:42:19.661Z,10.38
2017-09-24T03:43:28.521Z,10.29
2017-09-24T03:44:37.060Z,10.31
2017-09-24T03:45:45.601Z,10.31
2017-09-24T03:46:54.144Z,10.38
2017-09-24T03:48:02.689Z,10.33
2017-09-24T03:49:11.226Z,10.25
2017-09-24T03:50:20.086Z,10.23
2017-09-24T03:51:28.945Z,10.23
2017-09-24T03:52:37.808Z,10.23
2017-09-24T03:53:46.349Z,10.2
2017-09-24T03:54:54.886Z,10.28
2017-09-24T03:56:03.428Z,10.11
2017-09-24T03:57:12.314Z,10.15
2017-09-24T03:58:21.157Z,10.14
2017-09-24T03:59:29.696Z,10.08
2017-09-24T04:00:38.562Z,10.07
2017-09-24T04:01:47.423Z,10.13
2017-09-24T04:02:56.328Z,10.05
2017-09-24T04:04:05.162Z,10.05
2017-09-24T04:05:14.045Z,10.07
2017-09-24T04:06:22.565Z,10.1
2017-09-24T04:07:31.430Z,10.13
2017-09-24T04:08:39.967Z,10
2017-09-24T04:09:48.828Z,10
2017-09-24T04:10:57.369Z,10.03
2017-09-24T04:12:05.909Z,9.96
2017-09-24T04:13:14.769Z,10.03
2017-09-24T04:14:23.630Z,10
2017-09-24T04:15:32.823Z,9.99
2017-09-24T04:16:41.694Z,10.03
2017-09-24T04:17:50.247Z,10.05
2017-09-24T04:18:58.785Z,10
2017-09-24T04:20:07.330Z,10.02
2017-09-24T04:21:16.193Z,9.99
2017-09-24T04:22:24.732Z,10.05
2017-09-24T04:23:33.273Z,10.07
2017-09-24T04:24:42.133Z,10.03
2017-09-24T04:25:50.671Z,10.03
2017-09-24T04:26:59.211Z,9.98
2017-09-24T04:28:08.075Z,10.02
2017-09-24T04:29:16.617Z,10.03
2017-09-24T04:30:25.158Z,9.95
2017-09-24T04:31:33.699Z,9.98
2017-09-24T04:32:42.240Z,10.03
2017-09-24T04:33:50.779Z,9.95
2017-09-24T04:34:59.641Z,9.96
2017-09-24T04:36:08.830Z,10
2017-09-24T04:37:17.694Z,9.96
2017-09-24T04:38:26.236Z,9.98
2017-09-24T04:39:34.804Z,10.02
2017-09-24T04:40:43.635Z,9.96
2017-09-24T04:41:52.496Z,9.98
2017-09-24T04:43:01.679Z,9.92
2017-09-24T04:44:10.224Z,9.98
2017-09-24T04:45:18.765Z,9.98
2017-09-24T04:46:27.630Z,9.9
2017-09-24T04:47:37.140Z,9.99
2017-09-24T04:48:46.002Z,9.96
2017-09-24T04:49:54.863Z,9.98
2017-09-24T04:51:03.727Z,9.95
2017-09-24T04:52:12.269Z,9.92
2017-09-24T04:53:20.811Z,9.9
2017-09-24T04:54:29.998Z,9.95
2017-09-24T04:55:38.863Z,9.93
2017-09-24T04:56:48.056Z,9.85
2017-09-24T04:57:56.924Z,9.88
2017-09-24T04:59:05.465Z,9.92
2017-09-24T05:00:14.010Z,9.95
2017-09-24T05:01:22.551Z,9.88
2017-09-24T05:02:31.735Z,9.9
2017-09-24T05:03:40.277Z,9.92
2017-09-24T05:04:48.819Z,9.95
2017-09-24T05:05:58.061Z,9.95
2017-09-24T05:07:07.621Z,9.96
2017-09-24T05:08:16.166Z,9.96
2017-09-24T05:09:24.707Z,9.92
2017-09-24T05:10:33.900Z,9.9
2017-09-24T05:11:42.765Z,9.96
2017-09-24T05:12:51.627Z,9.92
2017-09-24T05:14:00.169Z,9.9
2017-09-24T05:15:09.030Z,9.92
2017-09-24T05:16:17.895Z,9.9
2017-09-24T05:17:26.436Z,9.9
2017-09-24T05:18:35.302Z,9.93
2017-09-24T05:19:43.840Z,9.89
2017-09-24T05:20:52.382Z,9.85
2017-09-24T05:22:01.243Z,9.93
2017-09-24T05:23:10.105Z,9.93
2017-09-24T05:24:18.975Z,9.92
2017-09-24T05:25:27.846Z,9.89
2017-09-24T05:26:37.035Z,9.84
2017-09-24T05:27:45.906Z,9.85
2017-09-24T05:28:55.103Z,9.89
2017-09-24T05:30:03.645Z,9.88
2017-09-24T05:31:12.509Z,9.77
2017-09-24T05:32:21.052Z,9.9
2017-09-24T05:33:29.593Z,9.75
2017-09-24T05:34:38.133Z,9.81
2017-09-24T05:35:46.677Z,9.8
2017-09-24T05:36:55.218Z,9.8
2017-09-24T05:38:03.757Z,9.8
2017-09-24T05:39:12.295Z,9.77
2017-09-24T05:40:21.157Z,9.82
2017-09-24T05:41:30.016Z,9.77
2017-09-24T05:42:38.555Z,9.78
2017-09-24T05:43:47.418Z,9.81
2017-09-24T05:44:56.281Z,9.85
2017-09-24T05:46:05.144Z,9.81
2017-09-24T05:47:13.689Z,9.88
2017-09-24T05:48:22.229Z,9.8
2017-09-24T05:49:31.094Z,9.82
2017-09-24T05:50:39.961Z,9.82
2017-09-24T05:51:49.076Z,9.85
2017-09-24T05:52:57.938Z,9.84
2017-09-24T05:54:06.800Z,9.81
2017-09-24T05:55:15.989Z,9.85
2017-09-24T05:56:25.182Z,9.9
2017-09-24T05:57:34.046Z,9.81
2017-09-24T05:58:43.235Z,9.8
2017-09-24T05:59:52.100Z,9.89
2017-09-24T06:01:00.966Z,9.84
2017-09-24T06:02:09.510Z,9.93
2017-09-24T06:03:18.370Z,9.89
2017-09-24T06:04:27.237Z,9.88
2017-09-24T06:05:37.065Z,9.96
2017-09-24T06:06:45.612Z,9.96
2017-09-24T06:07:54.475Z,9.96
2017-09-24T06:09:03.020Z,9.99
2017-09-24T06:10:11.565Z,9.99
2017-09-24T06:11:20.751Z,9.99
2017-09-24T06:12:29.291Z,10.02
2017-09-24T06:13:37.834Z,10.11
2017-09-24T06:14:46.697Z,10.15
2017-09-24T06:15:55.564Z,10.1
2017-09-24T06:17:04.106Z,10.23
2017-09-24T06:18:12.646Z,10.25
2017-09-24T06:19:21.186Z,10.26
2017-09-24T06:20:29.724Z,10.31
2017-09-24T06:21:38.270Z,10.21
2017-09-24T06:22:46.810Z,10.21
2017-09-24T06:23:55.354Z,10.21
2017-09-24T06:25:03.895Z,10.26
2017-09-24T06:26:12.762Z,10.29
2017-09-24T06:27:21.627Z,10.21
2017-09-24T06:28:30.171Z,10.25
2017-09-24T06:29:39.356Z,10.26
2017-09-24T06:30:48.541Z,10.21
2017-09-24T06:31:57.406Z,10.26
2017-09-24T06:33:05.949Z,10.26
2017-09-24T06:34:15.138Z,10.21
2017-09-24T06:35:24.003Z,10.21
2017-09-24T06:36:32.543Z,10.31
2017-09-24T06:37:41.407Z,10.23
2017-09-24T06:38:49.945Z,10.28
2017-09-24T06:39:58.489Z,10.32
2017-09-24T06:41:07.675Z,10.32
2017-09-24T06:42:16.215Z,10.2
2017-09-24T06:43:25.107Z,10.36
2017-09-24T06:44:34.615Z,10.38
2017-09-24T06:45:43.481Z,10.38
2017-09-24T06:46:52.022Z,10.38
2017-09-24T06:48:01.214Z,10.41
2017-09-24T06:49:09.758Z,10.39
2017-09-24T06:50:18.623Z,10.41
2017-09-24T06:51:27.165Z,10.39
2017-09-24T06:52:36.352Z,10.44
2017-09-24T06:53:45.217Z,10.44
2017-09-24T06:54:54.085Z,10.46
2017-09-24T06:56:03.309Z,10.52
2017-09-24T06:57:12.496Z,10.52
2017-09-24T06:58:21.367Z,10.57
2017-09-24T06:59:30.232Z,10.52
2017-09-24T07:00:38.774Z,10.54
2017-09-24T07:01:47.314Z,10.59
2017-09-24T07:02:55.854Z,10.58
2017-09-24T07:04:05.044Z,10.61
2017-09-24T07:05:13.911Z,10.69
2017-09-24T07:06:22.448Z,10.67
2017-09-24T07:07:30.989Z,10.72
2017-09-24T07:08:40.176Z,10.77
2017-09-24T07:09:48.716Z,10.69
2017-09-24T07:10:57.579Z,10.76
2017-09-24T07:12:06.442Z,10.72
2017-09-24T07:13:15.308Z,10.83
2017-09-24T07:14:24.170Z,10.8
2017-09-24T07:15:33.065Z,10.88
2017-09-24T07:16:41.609Z,10.88
2017-09-24T07:17:50.152Z,11.02
2017-09-24T07:18:59.013Z,10.98
2017-09-24T07:20:07.560Z,11.03
2017-09-24T07:21:16.423Z,11.06
2017-09-24T07:22:25.606Z,10.98
2017-09-24T07:23:34.479Z,11.09
2017-09-24T07:24:43.021Z,11.12
2017-09-24T07:25:52.187Z,11.23
2017-09-24T07:27:01.378Z,11.24
2017-09-24T07:28:10.564Z,11.24
2017-09-24T07:29:19.758Z,11.38
2017-09-24T07:30:28.624Z,11.41
2017-09-24T07:31:37.168Z,11.48
2017-09-24T07:32:45.714Z,11.59
2017-09-24T07:33:54.902Z,11.57
2017-09-24T07:35:03.769Z,11.73
2017-09-24T07:36:12.310Z,11.82
2017-09-24T07:37:21.176Z,11.88
2017-09-24T07:38:30.042Z,11.98
2017-09-24T07:39:38.584Z,11.98
2017-09-24T07:40:47.458Z,12.05
2017-09-24T07:41:56.001Z,12.16
2017-09-24T07:43:04.865Z,12.29
2017-09-24T07:44:13.421Z,12.26
2017-09-24T07:45:22.283Z,12.26
2017-09-24T07:46:30.822Z,12.36
2017-09-24T07:47:40.008Z,12.4
2017-09-24T07:48:48.876Z,12.4
2017-09-24T07:49:57.419Z,12.55
2017-09-24T07:51:05.959Z,12.56
2017-09-24T07:52:14.504Z,12.59
2017-09-24T07:53:23.048Z,12.63
2017-09-24T07:54:31.587Z,12.77
2017-09-24T07:55:40.132Z,12.73
2017-09-24T07:56:48.994Z,12.8
2017-09-24T07:57:57.859Z,12.84
2017-09-24T07:59:06.407Z,12.83
2017-09-24T08:00:14.949Z,12.99
2017-09-24T08:01:24.135Z,12.96
2017-09-24T08:02:32.679Z,12.99
2017-09-24T08:03:41.545Z,12.99
2017-09-24T08:04:50.411Z,13.03
2017-09-24T08:05:59.280Z,13.02
2017-09-24T08:07:08.148Z,13.03
2017-09-24T08:08:17.334Z,13.14
2017-09-24T08:09:26.198Z,13.16
2017-09-24T08:10:34.740Z,13.19
2017-09-24T08:11:43.287Z,13.17
2017-09-24T08:12:51.832Z,13.28
2017-09-24T08:14:00.381Z,13.24
2017-09-24T08:15:09.256Z,13.25
2017-09-24T08:16:18.120Z,13.32
2017-09-24T08:17:27.306Z,13.36
2017-09-24T08:18:35.851Z,13.44
2017-09-24T08:19:45.040Z,13.53
2017-09-24T08:20:53.583Z,13.55
2017-09-24T08:22:02.127Z,13.63
2017-09-24T08:23:10.991Z,13.58
2017-09-24T08:24:19.534Z,13.73
2017-09-24T08:25:28.080Z,13.66
2017-09-24T08:26:36.947Z,13.72
2017-09-24T08:27:45.488Z,13.75
2017-09-24T08:28:54.033Z,13.81
2017-09-24T08:30:02.895Z,13.91
2017-09-24T08:31:12.083Z,13.95
2017-09-24T08:32:20.949Z,13.97
2017-09-24T08:33:29.493Z,14.03
2017-09-24T08:34:38.038Z,14.13
2017-09-24T08:35:46.582Z,14.15
2017-09-24T08:36:55.452Z,14.13
2017-09-24T08:38:04.030Z,14.15
2017-09-24T08:39:12.544Z,14.3
2017-09-24T08:40:21.412Z,14.33
2017-09-24T08:41:29.954Z,14.33
2017-09-24T08:42:38.495Z,14.38
2017-09-24T08:43:47.038Z,14.48
2017-09-24T08:44:56.224Z,14.53
2017-09-24T08:46:05.087Z,14.59
2017-09-24T08:47:14.279Z,14.61
2017-09-24T08:48:23.470Z,14.71
2017-09-24T08:49:32.012Z,14.75
2017-09-24T08:50:40.556Z,14.67
2017-09-24T08:51:49.100Z,14.67
2017-09-24T08:52:58.294Z,14.82
2017-09-24T08:54:06.840Z,14.89
2017-09-24T08:55:15.704Z,14.9
2017-09-24T08:56:24.573Z,14.97
2017-09-24T08:57:33.117Z,14.98
2017-09-24T08:58:41.661Z,15.02
2017-09-24T08:59:50.533Z,15.1
2017-09-24T09:00:59.080Z,15.12
2017-09-24T09:02:07.951Z,15.19
2017-09-24T09:03:16.496Z,15.33
2017-09-24T09:04:26.013Z,15.25
2017-09-24T09:05:34.556Z,15.38
2017-09-24T09:06:43.419Z,15.53
2017-09-24T09:07:51.965Z,15.44
2017-09-24T09:09:00.836Z,15.53
2017-09-24T09:10:09.382Z,15.58
2017-09-24T09:11:17.926Z,15.68
2017-09-24T09:12:26.792Z,15.77
2017-09-24T09:13:35.665Z,15.8
2017-09-24T09:14:44.211Z,15.83
2017-09-24T09:15:52.754Z,15.93
2017-09-24T09:17:01.297Z,15.96
2017-09-24T09:18:09.842Z,16.1
2017-09-24T09:19:18.386Z,16.08
2017-09-24T09:20:27.574Z,16.1
2017-09-24T09:21:36.442Z,16.08
2017-09-24T09:22:44.988Z,16.04
2017-09-24T09:23:53.856Z,16.14
2017-09-24T09:25:02.402Z,16.18
2017-09-24T09:26:10.950Z,16.25
2017-09-24T09:27:19.819Z,16.18
2017-09-24T09:28:28.363Z,16.26
2017-09-24T09:29:37.231Z,16.27
2017-09-24T09:30:46.102Z,16.33
2017-09-24T09:31:54.973Z,16.33
2017-09-24T09:33:03.515Z,16.22
2017-09-24T09:34:12.060Z,16.33
2017-09-24T09:35:20.605Z,16.29
2017-09-24T09:36:29.471Z,16.29
2017-09-24T09:37:38.018Z,16.39
2017-09-24T09:38:46.564Z,16.26
2017-09-24T09:39:55.431Z,16.3
2017-09-24T09:41:03.973Z,16.36
2017-09-24T09:42:12.519Z,16.39
2017-09-24T09:43:21.062Z,16.45
2017-09-24T09:44:29.608Z,16.44
2017-09-24T09:45:38.476Z,16.47
2017-09-24T09:46:47.021Z,16.49
2017-09-24T09:47:55.890Z,16.4
2017-09-24T09:49:04.759Z,16.47
2017-09-24T09:50:13.627Z,16.32
2017-09-24T09:51:22.502Z,16.44
2017-09-24T09:52:31.368Z,16.48
2017-09-24T09:53:39.913Z,16.49
2017-09-24T09:54:49.103Z,16.48
2017-09-24T09:55:57.646Z,16.54
2017-09-24T09:57:06.835Z,16.63
2017-09-24T09:58:16.028Z,16.63
2017-09-24T09:59:24.896Z,16.69
2017-09-24T10:00:33.441Z,16.76
2017-09-24T10:01:42.632Z,16.72
2017-09-24T10:02:51.531Z,16.81
2017-09-24T10:04:00.404Z,16.9
2017-09-24T10:05:09.599Z,16.88
2017-09-24T10:06:18.466Z,16.87
2017-09-24T10:07:27.011Z,16.95
2017-09-24T10:08:35.880Z,16.82
2017-09-24T10:09:44.427Z,16.99
2017-09-24T10:10:53.620Z,16.99
2017-09-24T10:12:02.173Z,17.03
2017-09-24T10:13:10.714Z,17.03
2017-09-24T10:14:19.257Z,17.05
2017-09-24T10:15:27.801Z,17.06
2017-09-24T10:16:36.344Z,17.09
2017-09-24T10:17:45.210Z,17.09
2017-09-24T10:18:54.078Z,17.12
2017-09-24T10:20:03.272Z,17.13
2017-09-24T10:21:11.818Z,17.17
2017-09-24T10:22:20.689Z,17.15
2017-09-24T10:23:29.232Z,17.21
2017-09-24T10:24:38.100Z,17.2
2017-09-24T10:25:46.648Z,17.24
2017-09-24T10:26:56.130Z,17.28
2017-09-24T10:28:04.678Z,17.27
2017-09-24T10:29:13.223Z,17.36
2017-09-24T10:30:22.090Z,17.3
2017-09-24T10:31:30.635Z,17.38
2017-09-24T10:32:39.504Z,17.42
2017-09-24T10:33:48.376Z,17.4
2017-09-24T10:34:57.572Z,17.45
2017-09-24T10:36:06.435Z,17.4
2017-09-24T10:37:15.301Z,17.4
2017-09-24T10:38:24.490Z,17.52
2017-09-24T10:39:33.043Z,17.65
2017-09-24T10:40:41.904Z,17.6
2017-09-24T10:41:50.453Z,17.57
2017-09-24T10:42:59.328Z,17.66
2017-09-24T10:44:08.024Z,17.66
2017-09-24T10:45:17.096Z,17.74
2017-09-24T10:46:25.694Z,17.66
2017-09-24T10:47:34.342Z,17.76
2017-09-24T10:48:43.290Z,17.74
2017-09-24T10:49:51.949Z,17.77
2017-09-24T10:51:01.239Z,17.8
2017-09-24T10:52:09.865Z,17.88
2017-09-24T10:53:18.463Z,17.86
2017-09-24T10:54:27.030Z,17.84
2017-09-24T10:55:36.276Z,17.88
2017-09-24T10:56:45.220Z,17.9
2017-09-24T10:57:54.146Z,17.88
2017-09-24T10:59:03.066Z,17.98
2017-09-24T11:00:12.018Z,18.03
2017-09-24T11:01:20.996Z,18.11
2017-09-24T11:02:29.946Z,18.08
2017-09-24T11:03:38.535Z,18.03
2017-09-24T11:04:47.431Z,18.11
2017-09-24T11:05:56.359Z,18.14
2017-09-24T11:07:05.272Z,18.13
2017-09-24T11:08:14.191Z,18.19
2017-09-24T11:09:23.119Z,18.24
2017-09-24T11:10:32.052Z,18.29
2017-09-24T11:11:41.028Z,18.39
2017-09-24T11:12:49.977Z,18.34
2017-09-24T11:13:59.236Z,18.41
2017-09-24T11:15:08.155Z,18.36
2017-09-24T11:16:16.790Z,18.29
2017-09-24T11:17:26.030Z,18.39
2017-09-24T11:18:34.687Z,18.36
2017-09-24T11:19:43.280Z,18.42
2017-09-24T11:20:51.898Z,18.49
2017-09-24T11:22:00.869Z,18.51
2017-09-24T11:23:09.444Z,18.42
2017-09-24T11:24:18.043Z,18.53
2017-09-24T11:25:26.987Z,18.51
2017-09-24T11:26:35.929Z,18.56
2017-09-24T11:27:44.582Z,18.66
2017-09-24T11:28:53.175Z,18.68
2017-09-24T11:30:01.770Z,18.71
2017-09-24T11:31:10.390Z,18.66
2017-09-24T11:32:19.313Z,18.71
2017-09-24T11:33:27.884Z,18.68
2017-09-24T11:34:36.434Z,18.72
2017-09-24T11:35:45.082Z,18.74
2017-09-24T11:36:54.022Z,18.68
2017-09-24T11:38:02.623Z,18.75
2017-09-24T11:39:11.216Z,18.75
2017-09-24T11:40:20.163Z,18.78
2017-09-24T11:41:29.061Z,18.82
2017-09-24T11:42:37.625Z,18.78
2017-09-24T11:43:46.201Z,18.78
2017-09-24T11:44:55.147Z,18.84
2017-09-24T11:46:04.056Z,18.84
2017-09-24T11:47:12.654Z,18.86
2017-09-24T11:48:21.631Z,18.87
2017-09-24T11:49:30.228Z,18.93
2017-09-24T11:50:38.824Z,18.9
2017-09-24T11:51:47.578Z,18.91
2017-09-24T11:52:56.515Z,18.94
2017-09-24T11:54:05.442Z,18.96
2017-09-24T11:55:14.639Z,19.13
2017-09-24T11:56:23.561Z,19.12
2017-09-24T11:57:32.806Z,19.19
2017-09-24T11:58:42.349Z,19.17
2017-09-24T11:59:51.296Z,19.17
2017-09-24T12:00:59.875Z,19.25
2017-09-24T12:02:09.096Z,19.27
2017-09-24T12:03:17.699Z,19.24
2017-09-24T12:04:27.237Z,19.24
2017-09-24T12:05:35.842Z,19.31
2017-09-24T12:06:45.099Z,19.3
2017-09-24T12:07:53.707Z,19.31
2017-09-24T12:09:02.971Z,19.31
2017-09-24T12:10:11.536Z,19.37
2017-09-24T12:11:20.592Z,19.42
2017-09-24T12:12:29.147Z,19.37
2017-09-24T12:13:38.066Z,19.35
2017-09-24T12:14:46.932Z,19.35
2017-09-24T12:15:55.809Z,19.28
2017-09-24T12:17:04.999Z,19.24
2017-09-24T12:18:13.872Z,19.28
2017-09-24T12:19:22.744Z,19.24
2017-09-24T12:20:31.940Z,19.4
2017-09-24T12:21:40.810Z,19.32
2017-09-24T12:22:49.360Z,19.32
2017-09-24T12:23:58.232Z,19.42
2017-09-24T12:25:07.101Z,19.47
2017-09-24T12:26:15.974Z,19.43
2017-09-24T12:27:24.848Z,19.47
2017-09-24T12:28:33.394Z,19.43
2017-09-24T12:29:41.943Z,19.47
2017-09-24T12:30:50.815Z,19.49
2017-09-24T12:31:59.684Z,19.52
2017-09-24T12:33:08.880Z,19.52
2017-09-24T12:34:17.752Z,19.56
2017-09-24T12:35:26.303Z,19.6
2017-09-24T12:36:35.175Z,19.64
2017-09-24T12:37:43.721Z,19.74
2017-09-24T12:38:52.266Z,19.75
2017-09-24T12:40:01.135Z,19.78
2017-09-24T12:41:09.680Z,19.72
2017-09-24T12:42:18.227Z,19.75
2017-09-24T12:43:27.096Z,19.74
2017-09-24T12:44:35.965Z,19.74
2017-09-24T12:45:44.520Z,19.79
2017-09-24T12:46:53.076Z,19.82
2017-09-24T12:48:02.269Z,19.82
2017-09-24T12:49:11.138Z,19.89
2017-09-24T12:50:20.011Z,19.92
2017-09-24T12:51:28.559Z,20
2017-09-24T12:52:37.110Z,19.98
2017-09-24T12:53:45.661Z,20
2017-09-24T12:54:54.530Z,20.02
2017-09-24T12:56:03.404Z,20.05
2017-09-24T12:57:12.274Z,20.08
2017-09-24T12:58:21.148Z,20.19
2017-09-24T12:59:29.696Z,20.18
2017-09-24T13:00:38.887Z,20.27
2017-09-24T13:01:47.434Z,20.27
2017-09-24T13:02:55.981Z,20.19
2017-09-24T13:04:05.176Z,20.2
2017-09-24T13:05:13.728Z,20.19
2017-09-24T13:06:22.273Z,20.16
2017-09-24T13:07:30.817Z,20.22
2017-09-24T13:08:39.364Z,20.18
2017-09-24T13:09:47.912Z,20.15
2017-09-24T13:10:56.462Z,20.19
2017-09-24T13:12:05.008Z,20.07
2017-09-24T13:13:13.887Z,20.15
2017-09-24T13:14:22.436Z,20.11
2017-09-24T13:15:30.983Z,20.12
2017-09-24T13:16:40.208Z,20.04
2017-09-24T13:17:49.401Z,19.95
2017-09-24T13:18:58.272Z,19.95
2017-09-24T13:20:06.818Z,19.95
2017-09-24T13:21:15.365Z,19.97
2017-09-24T13:22:24.301Z,19.98
2017-09-24T13:23:32.851Z,20
2017-09-24T13:24:42.074Z,20.02
2017-09-24T13:25:50.588Z,20.07
2017-09-24T13:26:59.788Z,20.1
2017-09-24T13:28:08.337Z,20.18
2017-09-24T13:29:16.883Z,20.22
2017-09-24T13:30:25.430Z,20.23
2017-09-24T13:31:34.309Z,20.3
2017-09-24T13:32:42.855Z,20.25
2017-09-24T13:33:51.401Z,20.26
2017-09-24T13:34:59.949Z,20.23
2017-09-24T13:36:08.498Z,20.29
2017-09-24T13:37:17.046Z,20.27
2017-09-24T13:38:25.917Z,20.19
2017-09-24T13:39:34.464Z,20.11
2017-09-24T13:40:43.513Z,20.16
2017-09-24T13:41:52.466Z,20.07
2017-09-24T13:43:01.897Z,20.05
2017-09-24T13:44:10.574Z,20.02
2017-09-24T13:45:19.185Z,20
2017-09-24T13:46:28.054Z,19.93
2017-09-24T13:47:36.729Z,19.92
2017-09-24T13:48:45.278Z,19.92
2017-09-24T13:49:53.825Z,19.97
2017-09-24T13:51:02.372Z,20.07
2017-09-24T13:52:10.923Z,20.04
2017-09-24T13:53:19.794Z,20.07
2017-09-24T13:54:28.341Z,20.08
2017-09-24T13:55:36.886Z,20.02
2017-09-24T13:56:45.759Z,20.04
2017-09-24T13:57:54.304Z,20.04
2017-09-24T13:59:03.175Z,20.07
2017-09-24T14:00:11.721Z,20.02
2017-09-24T14:01:20.266Z,20.18
2017-09-24T14:02:29.137Z,20.2
2017-09-24T14:03:38.007Z,20.19
2017-09-24T14:04:46.876Z,20.23
2017-09-24T14:05:56.073Z,20.23
2017-09-24T14:07:04.623Z,20.29
2017-09-24T14:08:13.493Z,20.26
2017-09-24T14:09:22.044Z,20.27
2017-09-24T14:10:31.237Z,20.38
2017-09-24T14:11:40.108Z,20.27
2017-09-24T14:12:48.652Z,20.3
2017-09-24T14:13:57.197Z,20.23
2017-09-24T14:15:06.066Z,20.12
2017-09-24T14:16:14.613Z,20.1
2017-09-24T14:17:23.164Z,20.04
2017-09-24T14:18:32.359Z,20.04
2017-09-24T14:19:41.231Z,20.05
2017-09-24T14:20:50.107Z,20.08
2017-09-24T14:21:58.974Z,20.11
2017-09-24T14:23:08.171Z,20.07
2017-09-24T14:24:17.049Z,20.15
2017-09-24T14:25:25.592Z,20.12
2017-09-24T14:26:34.139Z,20.12
2017-09-24T14:27:43.347Z,20.22
2017-09-24T14:28:51.889Z,20.11
2017-09-24T14:30:00.766Z,20.18
2017-09-24T14:31:09.316Z,20.16
2017-09-24T14:32:18.184Z,20.2
2017-09-24T14:33:27.056Z,20.18
2017-09-24T14:34:36.254Z,20.18
2017-09-24T14:35:44.803Z,20.19
2017-09-24T14:36:53.354Z,20.18
2017-09-24T14:38:02.229Z,20.08
2017-09-24T14:39:10.775Z,20.12
2017-09-24T14:40:19.652Z,20.16
2017-09-24T14:41:28.198Z,20.16
2017-09-24T14:42:36.745Z,20.18
2017-09-24T14:43:45.314Z,20.19
2017-09-24T14:44:53.862Z,20.12
2017-09-24T14:46:02.408Z,20.08
2017-09-24T14:47:10.957Z,20.05
2017-09-24T14:48:19.828Z,20.01
2017-09-24T14:49:28.377Z,20.02
2017-09-24T14:50:37.245Z,20.02
2017-09-24T14:51:46.114Z,20.1
2017-09-24T14:52:54.663Z,20